Time;durP1;ratioP1;P1;durP2;ratioP2;P2;SDS_P1;SDS_P2;PMS_P1;PMS_P2;Temp;Humidity;BMP_temperature;BMP_pressure;BME280_temperature;BME280_humidity;BME280_pressure;Samples;Min_cycle;Max_cycle;Signal;HPM_P1;HPM_P2
2022/01/27 00:06:10;;;;;;;31.00;16.95;;;;;;;;;;4881224;29;21029;-82
2022/01/27 00:09:00;;;;;;;387.17;149.10;;;;;;;;;;4882165;29;20495;-81
2022/01/27 00:11:47;;;;;;;1311.10;618.17;;;;;;;;;;4882373;29;20049;-81
2022/01/27 00:14:32;;;;;;;204.10;62.63;;;;;;;;;;4881608;29;20487;-81
2022/01/27 00:17:27;;;;;;;713.13;288.17;;;;;;;;;;4882311;29;20045;-81
2022/01/27 00:20:14;;;;;;;60.05;27.63;;;;;;;;;;4881826;29;20049;-81
2022/01/27 00:22:59;;;;;;;33.00;17.58;;;;;;;;;;4887214;29;20057;-81
2022/01/27 00:25:44;;;;;;;36.45;18.95;;;;;;;;;;4888139;29;20049;-82
2022/01/27 00:28:32;;;;;;;41.50;20.00;;;;;;;;;;4881464;29;20403;-82
2022/01/27 00:31:20;;;;;;;62.55;29.30;;;;;;;;;;4881929;29;20052;-82
2022/01/27 00:34:05;;;;;;;60.97;28.30;;;;;;;;;;4888020;29;20045;-82
2022/01/27 00:36:51;;;;;;;293.30;102.47;;;;;;;;;;4881268;29;20056;-82
2022/01/27 00:39:37;;;;;;;514.72;247.25;;;;;;;;;;4887318;29;20044;-82
2022/01/27 00:42:25;;;;;;;338.88;136.98;;;;;;;;;;4881104;29;20372;-82
2022/01/27 00:45:11;;;;;;;277.00;128.65;;;;;;;;;;4881814;29;20045;-81
2022/01/27 00:48:00;;;;;;;73.85;35.53;;;;;;;;;;4881606;29;20041;-81
2022/01/27 00:50:55;;;;;;;103.30;51.72;;;;;;;;;;4880938;29;20053;-82
2022/01/27 01:02:27;;;;;;;94.53;40.15;;;;;;;;;;4884927;29;20053;-81
2022/01/27 01:29:50;;;;;;;77.30;34.35;;;;;;;;;;4881031;29;20057;-82
2022/01/27 01:35:28;;;;;;;82.45;34.63;;;;;;;;;;4880709;29;20049;-83
2022/01/27 01:38:19;;;;;;;74.82;33.95;;;;;;;;;;4880824;29;20045;-84
2022/01/27 01:45:37;;;;;;;96.03;37.63;;;;;;;;;;4824549;29;20054;-84
2022/01/27 01:48:23;;;;;;;90.68;38.50;;;;;;;;;;4832056;29;20054;-83
2022/01/27 01:51:11;;;;;;;88.03;40.47;;;;;;;;;;4888874;29;20049;-83
2022/01/27 01:53:56;;;;;;;90.45;37.33;;;;;;;;;;4884819;29;20041;-83
2022/01/27 01:56:43;;;;;;;86.65;38.08;;;;;;;;;;4890100;29;20490;-84
2022/01/27 01:59:28;;;;;;;104.88;39.97;;;;;;;;;;4881224;29;20049;-83
2022/01/27 02:02:16;;;;;;;100.57;41.97;;;;;;;;;;4883020;29;20056;-83
2022/01/27 02:05:00;;;;;;;116.03;44.63;;;;;;;;;;4884821;29;20048;-83
2022/01/27 02:09:09;;;;;;;93.45;39.90;;;;;;;;;;4884577;29;20061;-84
2022/01/27 02:20:21;;;;;;;99.05;41.88;;;;;;;;;;4880443;29;20048;-82
2022/01/27 02:23:09;;;;;;;90.38;38.00;;;;;;;;;;4878656;29;20048;-82
2022/01/27 02:25:54;;;;;;;77.28;36.03;;;;;;;;;;4880013;29;20045;-82
2022/01/27 02:28:39;;;;;;;76.65;35.20;;;;;;;;;;4880412;29;20415;-82
2022/01/27 02:31:24;;;;;;;81.25;35.85;;;;;;;;;;4879695;29;20041;-82
2022/01/27 02:34:10;;;;;;;75.32;35.83;;;;;;;;;;4880136;29;20407;-82
2022/01/27 02:36:56;;;;;;;69.05;34.47;;;;;;;;;;4879846;29;20084;-82
2022/01/27 02:39:41;;;;;;;71.85;34.05;;;;;;;;;;4881196;29;20061;-82
2022/01/27 02:42:35;;;;;;;73.93;34.95;;;;;;;;;;4881303;29;20057;-82
2022/01/27 02:45:35;;;;;;;67.20;31.48;;;;;;;;;;4879221;29;20495;-83
2022/01/27 02:48:20;;;;;;;70.68;32.55;;;;;;;;;;4885289;29;20065;-82
2022/01/27 02:51:05;;;;;;;80.85;35.45;;;;;;;;;;4879159;29;20045;-82
2022/01/27 02:53:51;;;;;;;68.70;33.17;;;;;;;;;;4882274;29;20053;-83
2022/01/27 02:56:44;;;;;;;69.85;32.90;;;;;;;;;;4883892;29;20398;-82
2022/01/27 02:59:29;;;;;;;72.85;35.05;;;;;;;;;;4883919;29;20045;-82
2022/01/27 03:02:16;;;;;;;69.25;33.35;;;;;;;;;;4882515;29;20056;-82
2022/01/27 03:05:01;;;;;;;79.53;35.45;;;;;;;;;;4887433;29;20411;-82
2022/01/27 03:07:48;;;;;;;90.93;38.08;;;;;;;;;;4888888;29;20049;-83
2022/01/27 03:10:39;;;;;;;93.93;39.08;;;;;;;;;;4883456;29;20053;-83
2022/01/27 03:13:24;;;;;;;82.00;34.60;;;;;;;;;;4883326;29;20053;-83
2022/01/27 03:16:10;;;;;;;79.45;35.78;;;;;;;;;;4881536;29;20045;-83
2022/01/27 03:18:55;;;;;;;77.07;35.05;;;;;;;;;;4883633;29;20467;-83
2022/01/27 03:21:41;;;;;;;84.18;37.13;;;;;;;;;;4882584;29;20056;-83
2022/01/27 03:24:27;;;;;;;76.07;37.75;;;;;;;;;;4888458;29;20052;-84
2022/01/27 03:27:20;;;;;;;80.15;36.50;;;;;;;;;;4882918;29;20044;-83
2022/01/27 03:30:06;;;;;;;79.00;36.15;;;;;;;;;;4887708;29;20041;-83
2022/01/27 03:32:51;;;;;;;75.28;36.75;;;;;;;;;;4888502;29;20048;-83
2022/01/27 03:35:37;;;;;;;77.18;36.38;;;;;;;;;;4882378;29;20395;-83
2022/01/27 03:38:22;;;;;;;73.68;34.65;;;;;;;;;;4882762;29;20053;-83
2022/01/27 03:41:09;;;;;;;71.88;34.13;;;;;;;;;;4882870;29;20049;-83
2022/01/27 03:43:54;;;;;;;80.30;36.72;;;;;;;;;;4881150;29;20045;-82
2022/01/27 03:46:40;;;;;;;85.72;37.00;;;;;;;;;;4882829;29;20057;-82
2022/01/27 03:49:26;;;;;;;68.40;32.30;;;;;;;;;;4881656;29;20049;-82
2022/01/27 03:52:11;;;;;;;69.10;32.03;;;;;;;;;;4882641;29;20483;-82
2022/01/27 03:54:57;;;;;;;75.07;33.13;;;;;;;;;;4883292;29;20049;-82
2022/01/27 03:57:43;;;;;;;80.50;33.83;;;;;;;;;;4887348;29;20049;-82
2022/01/27 04:00:28;;;;;;;86.68;36.88;;;;;;;;;;4882566;29;20044;-82
2022/01/27 04:03:16;;;;;;;85.15;37.00;;;;;;;;;;4882509;29;20049;-82
2022/01/27 04:06:09;;;;;;;85.40;37.45;;;;;;;;;;4881438;29;20053;-82
2022/01/27 04:08:54;;;;;;;81.38;34.85;;;;;;;;;;4888132;29;20049;-84
2022/01/27 04:11:40;;;;;;;80.40;35.67;;;;;;;;;;4888170;29;20053;-85
2022/01/27 04:14:26;;;;;;;79.30;34.53;;;;;;;;;;4882726;29;20045;-84
2022/01/27 04:17:11;;;;;;;85.90;37.47;;;;;;;;;;4898064;29;20049;-84
2022/01/27 04:19:57;;;;;;;89.20;39.17;;;;;;;;;;4884137;29;20041;-84
2022/01/27 04:22:43;;;;;;;85.25;38.80;;;;;;;;;;4888757;29;20351;-85
2022/01/27 04:25:29;;;;;;;85.57;37.45;;;;;;;;;;4881912;29;20041;-85
2022/01/27 04:28:20;;;;;;;89.22;38.20;;;;;;;;;;4882153;29;20487;-84
2022/01/27 04:31:08;;;;;;;84.88;36.67;;;;;;;;;;4882352;29;20045;-85
2022/01/27 04:33:53;;;;;;;77.57;36.70;;;;;;;;;;4880292;29;20407;-85
2022/01/27 04:36:40;;;;;;;75.30;35.75;;;;;;;;;;4882770;29;20053;-85
2022/01/27 04:39:33;;;;;;;83.57;37.03;;;;;;;;;;4886619;29;20041;-85
2022/01/27 04:42:33;;;;;;;78.00;38.78;;;;;;;;;;4881522;29;20053;-85
2022/01/27 04:45:22;;;;;;;91.03;39.70;;;;;;;;;;4882600;29;20049;-85
2022/01/27 04:48:13;;;;;;;95.20;40.28;;;;;;;;;;4881136;29;20050;-85
2022/01/27 04:51:06;;;;;;;99.85;41.42;;;;;;;;;;4883278;29;20041;-86
2022/01/27 04:56:43;;;;;;;78.70;34.42;;;;;;;;;;4882029;29;20052;-83
2022/01/27 04:59:33;;;;;;;79.15;35.45;;;;;;;;;;4881814;29;20045;-83
2022/01/27 05:02:29;;;;;;;124.28;51.47;;;;;;;;;;4881400;29;20049;-83
2022/01/27 05:05:15;;;;;;;96.28;45.25;;;;;;;;;;4881084;29;20057;-84
2022/01/27 05:08:01;;;;;;;96.15;40.97;;;;;;;;;;4879732;29;20065;-83
2022/01/27 05:11:36;;;;;;;85.28;38.75;;;;;;;;;;4881355;29;20057;-83
2022/01/27 05:13:57;;;;;;;90.47;40.15;;;;;;;;;;4878850;29;20053;-83
2022/01/27 05:16:43;;;;;;;88.38;35.47;;;;;;;;;;4882966;29;20410;-84
2022/01/27 05:19:28;;;;;;;76.22;34.88;;;;;;;;;;4881232;29;20049;-82
2022/01/27 05:22:14;;;;;;;67.82;32.72;;;;;;;;;;4881070;29;20044;-83
2022/01/27 05:24:59;;;;;;;78.50;35.63;;;;;;;;;;4887611;29;20056;-83
2022/01/27 05:27:45;;;;;;;81.60;37.10;;;;;;;;;;4881128;29;20049;-83
2022/01/27 05:30:31;;;;;;;86.32;37.80;;;;;;;;;;4880074;29;20048;-83
2022/01/27 05:33:16;;;;;;;74.25;36.40;;;;;;;;;;4881107;29;20057;-83
2022/01/27 05:36:02;;;;;;;89.65;39.78;;;;;;;;;;4886977;23;20519;-83
2022/01/27 05:38:47;;;;;;;76.93;37.92;;;;;;;;;;4886936;29;20045;-83
2022/01/27 05:41:33;;;;;;;84.45;37.20;;;;;;;;;;4880503;29;20041;-83
2022/01/27 05:44:18;;;;;;;80.80;38.17;;;;;;;;;;4880305;29;20048;-83
2022/01/27 05:47:04;;;;;;;85.70;37.20;;;;;;;;;;4890993;29;20049;-84
2022/01/27 05:49:49;;;;;;;82.97;37.78;;;;;;;;;;4903081;29;20037;-83
2022/01/27 05:52:34;;;;;;;75.90;37.33;;;;;;;;;;4880381;29;20053;-83
2022/01/27 05:55:20;;;;;;;86.97;37.65;;;;;;;;;;4887094;29;20045;-83
2022/01/27 05:58:06;;;;;;;80.05;36.50;;;;;;;;;;4879939;29;20048;-83
2022/01/27 06:00:52;;;;;;;85.53;38.20;;;;;;;;;;4880265;29;20061;-84
2022/01/27 06:03:38;;;;;;;81.55;37.90;;;;;;;;;;4880088;29;20053;-83
2022/01/27 06:06:23;;;;;;;70.65;36.10;;;;;;;;;;4887025;29;20403;-83
2022/01/27 06:09:08;;;;;;;80.78;34.83;;;;;;;;;;4879729;29;20045;-83
2022/01/27 06:11:53;;;;;;;63.67;30.58;;;;;;;;;;4885925;29;20475;-83
2022/01/27 06:14:39;;;;;;;76.75;31.77;;;;;;;;;;4879814;29;20053;-84
2022/01/27 06:17:24;;;;;;;64.95;30.00;;;;;;;;;;4879566;29;20048;-83
2022/01/27 06:20:11;;;;;;;63.13;27.75;;;;;;;;;;4886452;29;20523;-83
2022/01/27 06:22:57;;;;;;;59.05;27.15;;;;;;;;;;4879784;29;20056;-83
2022/01/27 06:25:42;;;;;;;63.25;29.60;;;;;;;;;;4884995;29;20044;-83
2022/01/27 06:28:28;;;;;;;75.78;34.83;;;;;;;;;;4878609;29;20483;-83
2022/01/27 06:31:14;;;;;;;74.80;31.80;;;;;;;;;;4885886;29;20049;-83
2022/01/27 06:33:59;;;;;;;66.65;30.13;;;;;;;;;;4886415;29;20056;-82
2022/01/27 06:36:45;;;;;;;77.60;34.22;;;;;;;;;;4881866;29;20052;-83
2022/01/27 06:39:30;;;;;;;80.20;37.20;;;;;;;;;;4879973;29;20044;-83
2022/01/27 06:42:16;;;;;;;85.65;40.85;;;;;;;;;;4879789;29;20407;-83
2022/01/27 06:45:01;;;;;;;88.70;40.85;;;;;;;;;;4879152;29;20041;-83
2022/01/27 06:47:47;;;;;;;117.90;50.15;;;;;;;;;;4879433;29;20491;-83
2022/01/27 06:50:34;;;;;;;142.15;58.22;;;;;;;;;;4879790;29;20041;-83
2022/01/27 06:53:20;;;;;;;101.38;46.42;;;;;;;;;;4879490;29;20483;-83
2022/01/27 06:56:06;;;;;;;105.65;45.83;;;;;;;;;;4879495;29;20037;-83
2022/01/27 06:58:52;;;;;;;93.35;44.22;;;;;;;;;;4885598;29;20053;-83
2022/01/27 07:01:39;;;;;;;103.07;47.05;;;;;;;;;;4879669;29;20057;-82
2022/01/27 07:04:27;;;;;;;102.32;47.85;;;;;;;;;;4879731;29;20048;-82
2022/01/27 07:07:13;;;;;;;100.15;47.60;;;;;;;;;;4879428;29;20060;-82
2022/01/27 07:09:58;;;;;;;124.22;60.00;;;;;;;;;;4879718;29;20045;-82
2022/01/27 07:12:43;;;;;;;114.35;53.25;;;;;;;;;;4879202;29;20045;-84
2022/01/27 07:15:30;;;;;;;179.00;91.68;;;;;;;;;;4879917;29;20487;-83
2022/01/27 07:18:15;;;;;;;169.70;87.30;;;;;;;;;;4878935;29;20049;-83
2022/01/27 07:21:01;;;;;;;144.35;71.25;;;;;;;;;;4894714;29;20049;-83
2022/01/27 07:23:47;;;;;;;142.57;67.85;;;;;;;;;;4890065;29;20045;-84
2022/01/27 07:26:34;;;;;;;161.48;79.93;;;;;;;;;;4878988;29;20057;-84
2022/01/27 07:29:19;;;;;;;172.25;80.13;;;;;;;;;;4880004;29;20053;-84
2022/01/27 07:32:05;;;;;;;178.60;85.70;;;;;;;;;;4879609;29;20045;-84
2022/01/27 07:34:50;;;;;;;162.30;79.90;;;;;;;;;;4878796;29;20049;-85
2022/01/27 07:37:37;;;;;;;148.55;72.82;;;;;;;;;;4879585;29;20053;-85
2022/01/27 07:40:22;;;;;;;144.75;70.07;;;;;;;;;;4882100;29;20045;-86
2022/01/27 07:43:10;;;;;;;139.02;65.85;;;;;;;;;;4906791;29;20053;-85
2022/01/27 07:45:56;;;;;;;151.05;72.72;;;;;;;;;;4907840;29;20049;-85
2022/01/27 07:48:42;;;;;;;220.13;103.60;;;;;;;;;;4886688;29;20045;-85
2022/01/27 07:51:27;;;;;;;206.13;93.38;;;;;;;;;;4888012;29;20053;-86
2022/01/27 07:54:13;;;;;;;293.75;141.90;;;;;;;;;;4887194;29;20048;-85
2022/01/27 07:56:59;;;;;;;248.45;115.70;;;;;;;;;;4882861;29;20045;-86
2022/01/27 07:59:44;;;;;;;226.18;106.72;;;;;;;;;;4882580;29;20045;-85
2022/01/27 08:02:30;;;;;;;228.70;111.85;;;;;;;;;;4882069;29;20041;-85
2022/01/27 08:05:15;;;;;;;162.30;77.38;;;;;;;;;;4882603;29;20044;-84
2022/01/27 08:08:02;;;;;;;224.77;109.43;;;;;;;;;;4882234;29;20041;-85
2022/01/27 08:10:48;;;;;;;180.82;86.15;;;;;;;;;;4881775;29;20491;-86
2022/01/27 08:13:33;;;;;;;168.20;82.32;;;;;;;;;;4882194;29;20070;-86
2022/01/27 08:16:19;;;;;;;156.65;78.70;;;;;;;;;;4881557;29;20049;-85
2022/01/27 08:19:04;;;;;;;140.63;70.25;;;;;;;;;;4882166;29;20057;-85
2022/01/27 08:21:50;;;;;;;154.95;81.97;;;;;;;;;;4887586;29;20049;-84
2022/01/27 08:24:37;;;;;;;127.95;67.35;;;;;;;;;;4881576;29;20045;-84
2022/01/27 08:27:29;;;;;;;140.73;71.40;;;;;;;;;;4881794;29;20048;-84
2022/01/27 08:30:17;;;;;;;112.68;51.83;;;;;;;;;;4886785;29;20448;-84
2022/01/27 08:33:13;;;;;;;109.40;53.28;;;;;;;;;;4881554;29;20049;-84
2022/01/27 08:35:59;;;;;;;96.65;47.97;;;;;;;;;;4885026;29;20499;-85
2022/01/27 08:38:46;;;;;;;78.38;38.63;;;;;;;;;;4881101;29;20053;-84
2022/01/27 08:41:31;;;;;;;65.70;31.02;;;;;;;;;;4881647;29;20044;-84
2022/01/27 08:44:17;;;;;;;58.17;28.92;;;;;;;;;;4887097;29;20061;-84
2022/01/27 08:47:03;;;;;;;67.47;32.08;;;;;;;;;;4881865;29;20423;-84
2022/01/27 08:49:49;;;;;;;85.03;38.53;;;;;;;;;;4881742;29;20475;-84
2022/01/27 08:52:35;;;;;;;73.72;36.47;;;;;;;;;;4881525;29;20049;-85
2022/01/27 08:55:21;;;;;;;82.95;42.72;;;;;;;;;;4886133;29;20037;-84
2022/01/27 08:58:07;;;;;;;70.45;37.58;;;;;;;;;;4892507;29;20053;-86
2022/01/27 09:00:53;;;;;;;76.65;37.92;;;;;;;;;;4879667;29;20044;-76
2022/01/27 09:03:39;;;;;;;104.82;50.13;;;;;;;;;;4880013;29;20406;-76
2022/01/27 09:06:28;;;;;;;96.43;47.28;;;;;;;;;;4879533;29;20115;-75
2022/01/27 09:09:14;;;;;;;124.20;55.90;;;;;;;;;;4886831;29;20044;-75
2022/01/27 09:12:00;;;;;;;98.57;48.30;;;;;;;;;;4886803;29;20045;-73
2022/01/27 09:14:46;;;;;;;77.70;39.33;;;;;;;;;;4887205;29;20045;-75
2022/01/27 09:17:39;;;;;;;101.03;44.25;;;;;;;;;;4887916;23;20454;-74
2022/01/27 09:20:24;;;;;;;81.50;39.40;;;;;;;;;;4881277;29;20045;-73
2022/01/27 09:23:14;;;;;;;85.80;42.53;;;;;;;;;;4880591;29;20045;-73
2022/01/27 09:26:08;;;;;;;72.40;37.65;;;;;;;;;;4887227;29;20045;-72
2022/01/27 09:28:53;;;;;;;116.20;55.35;;;;;;;;;;4880559;29;20052;-74
2022/01/27 09:31:38;;;;;;;139.18;69.18;;;;;;;;;;4880033;29;20049;-73
2022/01/27 09:34:25;;;;;;;138.82;67.15;;;;;;;;;;4886525;29;20052;-74
2022/01/27 09:37:11;;;;;;;123.68;60.90;;;;;;;;;;4885489;29;20057;-75
2022/01/27 09:39:56;;;;;;;104.45;49.15;;;;;;;;;;4879600;29;20049;-75
2022/01/27 09:42:53;;;;;;;81.82;42.40;;;;;;;;;;4880014;29;20052;-74
2022/01/27 09:45:39;;;;;;;91.72;46.38;;;;;;;;;;4849535;23;20057;-80
2022/01/27 09:48:32;;;;;;;81.15;41.20;;;;;;;;;;4881156;29;20045;-80
2022/01/27 09:54:06;;;;;;;73.68;34.50;;;;;;;;;;4879984;29;20048;-81
2022/01/27 09:56:53;;;;;;;67.32;36.88;;;;;;;;;;4880759;29;20053;-80
2022/01/27 09:59:39;;;;;;;73.32;36.67;;;;;;;;;;4880740;29;20404;-80
2022/01/27 10:02:27;;;;;;;65.35;34.47;;;;;;;;;;4886512;29;20477;-81
2022/01/27 10:05:22;;;;;;;57.70;31.27;;;;;;;;;;4886148;29;20408;-81
2022/01/27 10:08:15;;;;;;;57.03;29.58;;;;;;;;;;4880141;29;20045;-82
2022/01/27 10:11:14;;;;;;;58.55;30.85;;;;;;;;;;4880541;29;20503;-81
2022/01/27 10:13:58;;;;;;;73.72;35.03;;;;;;;;;;4885355;29;20044;-80
2022/01/27 10:16:44;;;;;;;72.65;41.33;;;;;;;;;;4880477;29;20052;-80
2022/01/27 10:19:30;;;;;;;68.60;36.10;;;;;;;;;;4886449;29;20049;-81
2022/01/27 10:22:15;;;;;;;65.32;35.35;;;;;;;;;;4880995;29;20053;-80
2022/01/27 10:25:09;;;;;;;94.90;50.50;;;;;;;;;;4880005;29;20045;-80
2022/01/27 10:28:08;;;;;;;81.28;39.88;;;;;;;;;;4879641;29;20056;-82
2022/01/27 10:31:06;;;;;;;80.90;41.50;;;;;;;;;;4880190;29;20060;-82
2022/01/27 10:34:02;;;;;;;75.22;42.08;;;;;;;;;;4886215;29;20052;-81
2022/01/27 10:36:49;;;;;;;98.35;52.70;;;;;;;;;;4879692;29;20045;-80
2022/01/27 10:39:34;;;;;;;70.93;35.72;;;;;;;;;;4886495;29;20057;-80
2022/01/27 10:42:21;;;;;;;89.95;46.53;;;;;;;;;;4886633;29;20048;-80
2022/01/27 10:45:07;;;;;;;124.10;66.38;;;;;;;;;;4879930;29;20041;-81
2022/01/27 10:48:14;;;;;;;112.47;55.53;;;;;;;;;;4879684;29;20136;-81
2022/01/27 10:51:07;;;;;;;76.15;38.75;;;;;;;;;;4879773;29;20057;-81
2022/01/27 10:54:05;;;;;;;71.18;38.25;;;;;;;;;;4880019;29;20132;-80
2022/01/27 10:56:50;;;;;;;79.28;40.97;;;;;;;;;;4885564;29;20060;-80
2022/01/27 10:59:36;;;;;;;67.15;35.90;;;;;;;;;;4879685;29;20053;-80
2022/01/27 11:02:21;;;;;;;63.78;37.15;;;;;;;;;;4879560;29;20045;-80
2022/01/27 11:05:22;;;;;;;65.90;34.80;;;;;;;;;;4886354;29;20049;-79
2022/01/27 11:08:07;;;;;;;193.63;109.97;;;;;;;;;;4886887;29;20053;-79
2022/01/27 11:10:55;;;;;;;89.57;48.20;;;;;;;;;;4882559;29;20053;-80
2022/01/27 11:13:44;;;;;;;532.80;332.52;;;;;;;;;;4882839;29;20048;-80
2022/01/27 11:16:42;;;;;;;212.23;146.90;;;;;;;;;;4890972;29;20049;-81
2022/01/27 11:28:02;;;;;;;67.60;35.38;;;;;;;;;;4882809;29;20427;-81
2022/01/27 11:31:14;;;;;;;71.82;37.33;;;;;;;;;;4889296;29;20048;-80
2022/01/27 11:34:04;;;;;;;78.93;42.50;;;;;;;;;;4882629;29;20045;-81
2022/01/27 11:37:07;;;;;;;85.45;42.47;;;;;;;;;;4882708;29;20367;-82
2022/01/27 11:39:55;;;;;;;92.10;43.40;;;;;;;;;;4889085;29;20052;-81
2022/01/27 11:42:55;;;;;;;177.15;91.50;;;;;;;;;;4882282;29;20476;-82
2022/01/27 11:45:46;;;;;;;323.60;206.52;;;;;;;;;;4882412;29;20400;-81
2022/01/27 11:48:32;;;;;;;105.40;56.47;;;;;;;;;;4884382;29;20369;-82
2022/01/27 11:51:18;;;;;;;65.65;33.95;;;;;;;;;;4887316;29;20053;-82
2022/01/27 11:54:26;;;;;;;76.35;36.85;;;;;;;;;;4887331;29;20045;-81
2022/01/27 11:57:38;;;;;;;68.82;36.60;;;;;;;;;;4886751;29;20049;-79
2022/01/27 12:00:28;;;;;;;57.90;30.67;;;;;;;;;;4877774;29;20053;-82
2022/01/27 12:03:15;;;;;;;42.53;24.13;;;;;;;;;;4877749;29;20452;-79
2022/01/27 12:06:21;;;;;;;49.95;23.00;;;;;;;;;;4872489;29;20057;-81
2022/01/27 12:09:22;;;;;;;44.45;24.70;;;;;;;;;;4880328;29;20046;-81
2022/01/27 12:12:13;;;;;;;40.30;20.55;;;;;;;;;;4889904;29;20432;-82
2022/01/27 12:15:06;;;;;;;45.20;24.35;;;;;;;;;;4886847;29;20053;-80
2022/01/27 12:17:52;;;;;;;61.45;32.17;;;;;;;;;;4884453;29;20054;-83
2022/01/27 12:20:45;;;;;;;46.03;26.08;;;;;;;;;;4893053;29;20056;-80
2022/01/27 12:23:30;;;;;;;47.20;24.08;;;;;;;;;;4879140;29;20057;-80
2022/01/27 12:26:16;;;;;;;50.33;25.17;;;;;;;;;;4886630;29;20049;-82
2022/01/27 12:29:02;;;;;;;38.85;19.35;;;;;;;;;;4899543;29;20041;-82
2022/01/27 12:31:49;;;;;;;42.50;20.38;;;;;;;;;;4892881;29;20064;-82
2022/01/27 12:34:36;;;;;;;48.50;24.88;;;;;;;;;;4881922;29;20050;-82
2022/01/27 12:37:31;;;;;;;44.88;27.65;;;;;;;;;;4877988;29;20049;-80
2022/01/27 12:40:18;;;;;;;37.45;20.48;;;;;;;;;;4891027;29;20049;-82
2022/01/27 12:43:12;;;;;;;28.38;14.88;;;;;;;;;;4908731;29;20049;-82
2022/01/27 12:45:59;;;;;;;38.42;16.00;;;;;;;;;;4906488;29;20052;-82
2022/01/27 12:48:50;;;;;;;30.92;15.65;;;;;;;;;;4906774;29;20041;-81
2022/01/27 12:51:56;;;;;;;33.58;19.10;;;;;;;;;;4887706;29;20053;-82
2022/01/27 12:54:41;;;;;;;;;;;;;;;;;;4888267;29;20049;-80
2022/01/27 12:57:32;;;;;;;30.45;14.77;;;;;;;;;;4884654;29;19916;-82
2022/01/27 13:00:18;;;;;;;24.25;13.15;;;;;;;;;;4881452;29;20041;-80
2022/01/27 13:03:04;;;;;;;27.23;14.20;;;;;;;;;;4877041;29;20049;-80
2022/01/27 13:05:53;;;;;;;26.50;15.65;;;;;;;;;;4865480;29;20046;-80
2022/01/27 13:08:42;;;;;;;31.20;15.30;;;;;;;;;;4885847;29;20045;-80
2022/01/27 13:11:35;;;;;;;32.47;17.27;;;;;;;;;;4886031;29;20048;-81
2022/01/27 13:14:21;;;;;;;34.90;15.52;;;;;;;;;;4895141;29;20052;-82
2022/01/27 13:17:10;;;;;;;32.00;15.73;;;;;;;;;;4885755;29;20477;-79
2022/01/27 13:20:08;;;;;;;28.90;14.85;;;;;;;;;;4884900;29;20049;-79
2022/01/27 13:23:00;;;;;;;26.02;14.35;;;;;;;;;;4876771;29;20508;-82
2022/01/27 13:25:48;;;;;;;23.42;13.13;;;;;;;;;;4881191;29;20045;-81
2022/01/27 13:28:36;;;;;;;26.48;15.18;;;;;;;;;;4875622;29;20048;-82
2022/01/27 13:31:26;;;;;;;32.00;16.98;;;;;;;;;;4884090;29;20049;-81
2022/01/27 13:34:10;;;;;;;32.05;18.55;;;;;;;;;;4878287;29;20397;-83
2022/01/27 13:36:58;;;;;;;39.72;23.10;;;;;;;;;;4886917;29;20044;-81
2022/01/27 13:42:51;;;;;;;46.67;25.77;;;;;;;;;;4888324;29;20053;-79
2022/01/27 13:45:36;;;;;;;42.08;23.33;;;;;;;;;;4880769;29;20044;-79
2022/01/27 13:48:22;;;;;;;42.25;22.42;;;;;;;;;;4881211;29;20045;-81
2022/01/27 13:51:20;;;;;;;40.65;22.95;;;;;;;;;;4881347;29;20057;-81
2022/01/27 13:54:06;;;;;;;42.80;24.17;;;;;;;;;;4876243;29;20057;-81
2022/01/27 13:56:52;;;;;;;42.97;23.10;;;;;;;;;;4896211;29;20408;-81
2022/01/27 13:59:57;;;;;;;38.25;20.00;;;;;;;;;;4900553;29;20049;-81
2022/01/27 14:02:45;;;;;;;44.38;23.90;;;;;;;;;;4869480;29;20057;-80
2022/01/27 14:05:30;;;;;;;46.20;26.08;;;;;;;;;;4865246;29;20507;-78
2022/01/27 14:08:15;;;;;;;58.13;28.38;;;;;;;;;;4888562;29;20053;-81
2022/01/27 14:11:00;;;;;;;50.90;26.98;;;;;;;;;;4878509;29;20049;-80
2022/01/27 14:13:54;;;;;;;45.45;26.85;;;;;;;;;;4881037;29;20053;-79
2022/01/27 14:16:41;;;;;;;44.60;21.83;;;;;;;;;;4880217;29;20049;-80
2022/01/27 14:19:32;;;;;;;52.38;24.38;;;;;;;;;;4887422;29;20056;-81
2022/01/27 14:22:20;;;;;;;41.33;22.92;;;;;;;;;;4861974;29;20484;-79
2022/01/27 14:25:09;;;;;;;42.40;24.65;;;;;;;;;;4864639;29;20045;-80
2022/01/27 14:27:54;;;;;;;42.35;23.42;;;;;;;;;;4887019;29;20060;-80
2022/01/27 14:30:40;;;;;;;43.00;23.67;;;;;;;;;;4867664;29;20049;-79
2022/01/27 14:33:25;;;;;;;44.13;24.40;;;;;;;;;;4871470;29;20044;-80
2022/01/27 14:36:12;;;;;;;61.60;30.80;;;;;;;;;;4878929;29;20049;-79
2022/01/27 14:38:58;;;;;;;84.05;39.40;;;;;;;;;;4871912;29;20061;-80
2022/01/27 14:41:43;;;;;;;80.72;37.85;;;;;;;;;;4867698;29;20049;-81
2022/01/27 14:44:31;;;;;;;105.47;56.92;;;;;;;;;;4868093;29;20049;-80
2022/01/27 14:47:16;;;;;;;75.78;38.80;;;;;;;;;;4868427;29;20050;-80
2022/01/27 14:50:03;;;;;;;356.92;199.13;;;;;;;;;;4879483;29;20045;-81
2022/01/27 14:52:48;;;;;;;257.42;131.90;;;;;;;;;;4889778;29;20481;-80
2022/01/27 14:55:33;;;;;;;198.68;98.40;;;;;;;;;;4884054;29;20049;-80
2022/01/27 14:58:19;;;;;;;316.15;148.32;;;;;;;;;;4908749;29;20052;-79
2022/01/27 15:01:04;;;;;;;249.25;116.88;;;;;;;;;;4901715;29;20492;-80
2022/01/27 15:03:51;;;;;;;87.35;46.45;;;;;;;;;;4901445;29;20044;-79
2022/01/27 15:06:36;;;;;;;87.15;41.72;;;;;;;;;;4908759;29;20400;-80
2022/01/27 15:09:21;;;;;;;102.05;50.22;;;;;;;;;;4894575;29;20052;-81
2022/01/27 15:12:06;;;;;;;56.50;27.88;;;;;;;;;;4890481;29;20037;-81
2022/01/27 15:21:00;;;;;;;145.35;90.05;;;;;;;;;;4901470;29;20459;-79
2022/01/27 15:23:47;;;;;;;55.83;28.55;;;;;;;;;;4883393;29;20424;-78
2022/01/27 15:26:33;;;;;;;74.97;39.78;;;;;;;;;;4883062;29;20049;-78
2022/01/27 15:29:24;;;;;;;103.22;48.35;;;;;;;;;;4882854;29;20045;-79
2022/01/27 15:32:10;;;;;;;99.30;46.22;;;;;;;;;;4882470;29;20041;-81
2022/01/27 15:34:58;;;;;;;100.38;47.50;;;;;;;;;;4889272;29;20124;-81
2022/01/27 15:37:44;;;;;;;104.72;45.88;;;;;;;;;;4882685;29;20052;-81
2022/01/27 15:40:32;;;;;;;89.63;41.25;;;;;;;;;;4889145;29;20052;-82
2022/01/27 15:43:19;;;;;;;87.93;43.13;;;;;;;;;;4899129;29;20052;-83
2022/01/27 15:46:04;;;;;;;93.53;43.22;;;;;;;;;;4869517;29;20053;-82
2022/01/27 15:48:50;;;;;;;113.55;53.53;;;;;;;;;;4877095;29;20416;-81
2022/01/27 15:51:37;;;;;;;179.85;83.72;;;;;;;;;;4892067;29;20052;-78
2022/01/27 15:54:24;;;;;;;178.38;76.88;;;;;;;;;;4907422;29;20052;-80
2022/01/27 15:57:09;;;;;;;131.77;58.08;;;;;;;;;;4907118;29;20056;-79
2022/01/27 15:59:54;;;;;;;86.93;39.15;;;;;;;;;;4890183;29;20064;-79
2022/01/27 16:02:43;;;;;;;97.60;46.45;;;;;;;;;;4881815;29;20045;-79
2022/01/27 16:05:28;;;;;;;67.22;34.47;;;;;;;;;;4885321;29;20049;-80
2022/01/27 16:08:13;;;;;;;81.07;40.70;;;;;;;;;;4880592;29;20049;-80
2022/01/27 16:10:59;;;;;;;62.80;32.03;;;;;;;;;;4877201;29;20053;-81
2022/01/27 16:13:45;;;;;;;88.72;41.92;;;;;;;;;;4881757;29;20042;-79
2022/01/27 16:16:32;;;;;;;115.05;55.10;;;;;;;;;;4889905;29;20052;-79
2022/01/27 16:19:18;;;;;;;113.38;53.97;;;;;;;;;;4882222;29;20484;-79
2022/01/27 16:22:05;;;;;;;122.97;57.95;;;;;;;;;;4880793;29;20049;-81
2022/01/27 16:24:53;;;;;;;96.82;46.17;;;;;;;;;;4880075;29;20052;-78
2022/01/27 16:27:39;;;;;;;98.10;47.83;;;;;;;;;;4880131;29;20045;-79
2022/01/27 16:30:24;;;;;;;90.72;45.25;;;;;;;;;;4873756;29;20045;-78
2022/01/27 16:33:11;;;;;;;110.72;52.05;;;;;;;;;;4877637;29;20054;-78
2022/01/27 16:35:57;;;;;;;99.50;49.97;;;;;;;;;;4878793;29;20045;-80
2022/01/27 16:38:43;;;;;;;120.18;58.45;;;;;;;;;;4878991;29;20049;-79
2022/01/27 16:41:28;;;;;;;122.25;59.15;;;;;;;;;;4878253;29;20053;-79
2022/01/27 16:44:14;;;;;;;124.03;56.97;;;;;;;;;;4882093;29;20092;-81
2022/01/27 16:46:59;;;;;;;118.05;56.05;;;;;;;;;;4880466;29;20049;-80
2022/01/27 16:49:45;;;;;;;113.57;51.45;;;;;;;;;;4885811;29;20053;-79
2022/01/27 16:52:31;;;;;;;122.70;55.75;;;;;;;;;;4891336;29;20404;-80
2022/01/27 16:55:16;;;;;;;144.07;68.72;;;;;;;;;;4875942;29;20041;-79
2022/01/27 16:58:03;;;;;;;162.52;75.45;;;;;;;;;;4882500;29;20041;-79
2022/01/27 17:00:49;;;;;;;168.90;79.05;;;;;;;;;;4875796;29;20046;-81
2022/01/27 17:03:34;;;;;;;203.15;96.30;;;;;;;;;;4880988;29;20048;-81
2022/01/27 17:06:19;;;;;;;168.88;80.35;;;;;;;;;;4881088;29;20049;-82
2022/01/27 17:09:05;;;;;;;172.43;78.95;;;;;;;;;;4881143;29;20053;-81
2022/01/27 17:11:51;;;;;;;190.30;89.68;;;;;;;;;;4887342;29;20404;-80
2022/01/27 17:14:39;;;;;;;196.32;96.72;;;;;;;;;;4881193;29;20053;-79
2022/01/27 17:17:27;;;;;;;248.68;113.82;;;;;;;;;;4880788;29;20049;-81
2022/01/27 17:20:13;;;;;;;260.60;120.25;;;;;;;;;;4886635;29;20053;-81
2022/01/27 17:22:59;;;;;;;235.10;112.25;;;;;;;;;;4872929;29;20045;-79
2022/01/27 17:25:49;;;;;;;254.68;125.05;;;;;;;;;;4906612;29;20388;-81
2022/01/27 17:28:36;;;;;;;241.00;115.95;;;;;;;;;;4900209;29;20049;-81
2022/01/27 17:31:22;;;;;;;174.90;83.20;;;;;;;;;;4886683;29;20053;-80